Time;durP1;ratioP1;P1;durP2;ratioP2;P2;SDS_P1;SDS_P2;PMS_P1;PMS_P2;Temp;Humidity;BMP_temperature;BMP_pressure;BME280_temperature;BME280_humidity;BME280_pressure;Samples;Min_cycle;Max_cycle;Signal;HPM_P1;HPM_P2
2023/09/20 00:02:39;;;;;;;8.03;4.08;;;;;;;23.49;47.83;100427.20;2321633;76;50133;-76
2023/09/20 00:05:43;;;;;;;14.47;3.98;;;;;;;23.48;47.87;100423.67;2349867;75;50202;-76
2023/09/20 00:08:46;;;;;;;8.78;4.15;;;;;;;23.49;47.85;100421.80;2279874;76;51474;-77
2023/09/20 00:11:48;;;;;;;7.92;4.12;;;;;;;23.49;47.88;100417.73;2324219;76;50472;-78
2023/09/20 00:14:50;;;;;;;10.15;3.50;;;;;;;23.48;47.92;100418.80;2324582;76;51597;-77
2023/09/20 00:17:54;;;;;;;9.45;3.80;;;;;;;23.49;47.94;100420.44;2317570;76;51708;-77
2023/09/20 00:21:01;;;;;;;7.37;3.65;;;;;;;23.47;47.96;100417.13;2320460;75;50585;-77
2023/09/20 00:24:00;;;;;;;7.17;3.22;;;;;;;23.47;47.96;100410.37;2284518;77;22322;-77
2023/09/20 00:27:02;;;;;;;14.45;4.55;;;;;;;23.46;48.00;100416.84;2283019;77;51312;-77
2023/09/20 00:30:09;;;;;;;7.22;3.33;;;;;;;23.46;48.06;100416.84;2282681;77;51378;-77
2023/09/20 00:33:10;;;;;;;9.15;3.50;;;;;;;23.46;48.02;100414.95;2308268;76;22185;-77
2023/09/20 00:36:19;;;;;;;7.33;3.58;;;;;;;23.45;48.07;100409.77;2308334;77;51513;-77
2023/09/20 00:39:23;;;;;;;9.60;3.60;;;;;;;23.45;48.05;100408.41;2313838;77;50564;-77
2023/09/20 00:42:27;;;;;;;10.48;3.80;;;;;;;23.45;48.09;100416.52;2257823;77;51502;-77
2023/09/20 00:45:29;;;;;;;8.43;3.42;;;;;;;23.45;48.04;100414.67;2314125;75;21748;-75
2023/09/20 00:48:31;;;;;;;7.95;3.47;;;;;;;23.44;48.12;100415.70;2286771;76;50634;-76
2023/09/20 00:51:33;;;;;;;7.35;3.37;;;;;;;23.45;48.15;100413.81;2328099;76;50149;-77
2023/09/20 00:54:36;;;;;;;7.50;3.00;;;;;;;23.44;48.23;100412.17;2331391;76;50140;-77
2023/09/20 00:57:38;;;;;;;8.20;3.08;;;;;;;23.44;48.25;100413.00;2309219;76;51643;-77
2023/09/20 01:00:43;;;;;;;10.53;3.60;;;;;;;23.43;48.29;100410.01;2331542;76;51431;-77
2023/09/20 01:03:44;;;;;;;6.62;3.08;;;;;;;23.43;48.28;100401.91;2331621;75;22637;-77
2023/09/20 01:06:47;;;;;;;5.30;3.12;;;;;;;23.44;48.28;100410.83;2309486;76;51067;-77
2023/09/20 01:09:50;;;;;;;6.05;2.90;;;;;;;23.44;48.27;100414.88;2331644;76;50774;-77
2023/09/20 01:12:54;;;;;;;9.95;3.30;;;;;;;23.44;48.29;100429.73;2331677;76;50580;-77
2023/09/20 01:15:58;;;;;;;9.33;3.00;;;;;;;23.43;48.36;100423.51;2308016;76;49960;-76
2023/09/20 01:19:04;;;;;;;6.83;3.33;;;;;;;23.42;48.37;100421.02;2322976;75;50584;-75
2023/09/20 01:22:04;;;;;;;7.17;3.10;;;;;;;23.42;48.41;100424.53;2354860;75;22329;-77
2023/09/20 01:25:11;;;;;;;7.87;3.15;;;;;;;23.43;48.43;100422.69;2361528;75;52017;-77
2023/09/20 01:28:13;;;;;;;5.20;2.92;;;;;;;23.42;48.47;100429.12;2361911;75;22223;-77
2023/09/20 01:31:15;;;;;;;6.78;3.12;;;;;;;23.43;48.46;100425.39;2327762;75;51501;-77
2023/09/20 01:34:17;;;;;;;7.05;3.27;;;;;;;23.43;48.46;100425.39;2333059;75;51419;-77
2023/09/20 01:37:20;;;;;;;5.50;2.92;;;;;;;23.41;48.53;100418.03;2333351;75;50532;-77
2023/09/20 01:40:26;;;;;;;5.85;3.10;;;;;;;23.42;48.55;100425.06;2333526;75;50262;-77
2023/09/20 01:43:28;;;;;;;6.47;3.58;;;;;;;23.41;48.57;100418.03;2333572;74;51418;-76
2023/09/20 01:46:33;;;;;;;7.37;3.02;;;;;;;23.41;48.58;100418.84;2334577;75;51086;-76
2023/09/20 01:49:34;;;;;;;6.87;3.22;;;;;;;23.42;48.55;100410.22;2316248;75;21805;-77
2023/09/20 01:52:37;;;;;;;8.35;3.30;;;;;;;23.41;48.62;100407.23;2314361;76;51481;-76
2023/09/20 01:55:45;;;;;;;7.35;3.33;;;;;;;23.42;48.59;100416.97;2257952;75;50019;-77
2023/09/20 01:58:49;;;;;;;10.13;3.65;;;;;;;23.41;48.60;100403.17;2284665;77;51477;-76
2023/09/20 02:01:51;;;;;;;7.10;2.90;;;;;;;23.40;48.60;100398.80;2308489;75;50590;-77
2023/09/20 02:04:53;;;;;;;12.60;2.90;;;;;;;23.40;48.63;100405.05;2282787;77;51377;-77
2023/09/20 02:08:00;;;;;;;6.12;3.02;;;;;;;23.40;48.62;100408.25;2283025;75;50244;-75
2023/09/20 02:11:00;;;;;;;6.80;2.70;;;;;;;23.39;48.65;100408.78;2283465;77;22135;-76
2023/09/20 02:14:02;;;;;;;6.10;3.10;;;;;;;23.39;48.64;100406.61;2282827;75;50163;-77
2023/09/20 02:17:05;;;;;;;7.28;2.90;;;;;;;23.39;48.66;100412.02;2323624;75;50563;-77
2023/09/20 02:20:12;;;;;;;4.37;2.58;;;;;;;23.40;48.66;100415.00;2253327;77;50830;-77
2023/09/20 02:23:15;;;;;;;6.22;2.75;;;;;;;23.38;48.64;100413.89;2298674;77;51502;-76
2023/09/20 02:26:18;;;;;;;6.42;2.80;;;;;;;23.38;48.64;100413.89;2277493;77;50691;-76
2023/09/20 02:29:23;;;;;;;5.62;2.80;;;;;;;23.37;48.65;100414.09;2277508;77;50086;-76
2023/09/20 02:32:24;;;;;;;8.35;2.83;;;;;;;23.37;48.65;100419.50;2277767;77;22514;-77
2023/09/20 02:35:27;;;;;;;5.40;2.72;;;;;;;23.37;48.63;100416.27;2276294;77;52306;-77
2023/09/20 02:38:30;;;;;;;4.45;2.42;;;;;;;23.37;48.63;100407.35;2302291;76;50803;-77
2023/09/20 02:41:32;;;;;;;6.08;2.92;;;;;;;23.36;48.66;100401.66;2302512;76;50714;-76
2023/09/20 02:44:35;;;;;;;5.53;2.70;;;;;;;23.35;48.63;100398.14;2251965;77;51069;-76
2023/09/20 02:47:39;;;;;;;6.08;2.60;;;;;;;23.36;48.64;100397.61;2310471;76;50666;-76
2023/09/20 02:50:45;;;;;;;5.42;2.90;;;;;;;23.36;48.70;100401.66;2296997;76;21938;-75
2023/09/20 02:53:45;;;;;;;4.95;2.72;;;;;;;23.35;48.71;100401.34;2332701;75;22372;-77
2023/09/20 02:56:51;;;;;;;6.00;2.87;;;;;;;23.35;48.68;100397.29;2305975;76;50187;-77
2023/09/20 02:59:51;;;;;;;7.42;2.72;;;;;;;23.35;48.80;100399.98;2306347;76;22330;-76
2023/09/20 03:02:54;;;;;;;5.72;2.70;;;;;;;23.35;48.82;100404.03;2333980;75;50565;-77
2023/09/20 03:05:56;;;;;;;5.15;2.60;;;;;;;23.35;48.78;100402.19;2319897;75;51501;-77
2023/09/20 03:08:58;;;;;;;4.53;2.55;;;;;;;23.35;48.78;100397.29;2280779;76;52383;-77
2023/09/20 03:12:02;;;;;;;5.53;2.75;;;;;;;23.34;48.77;100390.25;2306211;76;50699;-77
2023/09/20 03:15:09;;;;;;;7.10;2.40;;;;;;;23.34;48.77;100387.55;2333678;76;51482;-77
2023/09/20 03:18:09;;;;;;;7.12;2.40;;;;;;;23.34;48.77;100384.85;2311643;75;22407;-77
2023/09/20 03:21:11;;;;;;;8.88;2.50;;;;;;;23.34;48.79;100387.55;2338708;76;50173;-77
2023/09/20 03:24:14;;;;;;;4.83;2.50;;;;;;;23.33;48.77;100384.03;2295553;76;51107;-77
2023/09/20 03:27:16;;;;;;;5.00;2.33;;;;;;;23.32;48.80;100385.05;2343088;75;50292;-77
2023/09/20 03:30:20;;;;;;;5.47;2.22;;;;;;;23.32;48.83;100385.59;2349990;75;50191;-76
2023/09/20 03:33:22;;;;;;;4.50;2.33;;;;;;;23.32;48.84;100393.16;2322705;76;51196;-77
2023/09/20 03:36:25;;;;;;;6.55;2.65;;;;;;;23.32;48.83;100393.69;2350020;75;50716;-77
2023/09/20 03:39:27;;;;;;;3.90;2.30;;;;;;;23.32;48.85;100395.03;2321564;76;51488;-77
2023/09/20 03:42:29;;;;;;;6.05;2.50;;;;;;;23.31;48.89;100400.97;2321352;76;51473;-77
2023/09/20 03:45:32;;;;;;;11.73;2.35;;;;;;;23.32;48.90;100403.13;2349491;75;50612;-76
2023/09/20 03:48:34;;;;;;;4.22;1.98;;;;;;;23.32;48.94;100399.09;2341973;75;50350;-77
2023/09/20 03:51:37;;;;;;;5.53;2.27;;;;;;;23.30;48.94;100387.67;2320617;76;50402;-77
2023/09/20 03:54:39;;;;;;;7.12;2.33;;;;;;;23.31;48.96;100388.00;2342660;76;51445;-77
2023/09/20 03:57:41;;;;;;;6.58;2.65;;;;;;;23.30;48.96;100390.38;2278749;76;51143;-76
2023/09/20 04:00:45;;;;;;;5.62;2.17;;;;;;;23.30;48.93;100395.28;2349782;75;50241;-75
2023/09/20 04:03:47;;;;;;;5.70;2.17;;;;;;;23.29;48.94;100391.44;2342499;76;50683;-76
2023/09/20 04:06:49;;;;;;;4.87;2.12;;;;;;;23.31;48.95;100388.00;2321599;76;50519;-77
2023/09/20 04:09:52;;;;;;;3.42;2.10;;;;;;;23.29;49.01;100394.95;2349613;75;51433;-76
2023/09/20 04:12:54;;;;;;;5.10;2.40;;;;;;;23.30;48.97;100393.08;2321437;76;50142;-77
2023/09/20 04:15:56;;;;;;;3.67;2.25;;;;;;;23.30;48.93;100397.98;2349662;75;51431;-77
2023/09/20 04:18:59;;;;;;;3.45;2.60;;;;;;;23.29;48.95;100387.38;2311614;76;51596;-77
2023/09/20 04:22:04;;;;;;;9.28;2.65;;;;;;;23.29;49.00;100396.83;2278983;76;52467;-76
2023/09/20 04:25:05;;;;;;;5.87;2.55;;;;;;;23.29;48.95;100395.48;2343203;75;22355;-77
2023/09/20 04:28:09;;;;;;;3.62;2.20;;;;;;;23.28;49.00;100393.84;2321930;76;50303;-77
2023/09/20 04:31:11;;;;;;;3.27;2.20;;;;;;;23.28;49.04;100396.55;2322358;76;51440;-77
2023/09/20 04:34:15;;;;;;;4.95;2.10;;;;;;;23.25;49.08;100398.62;2350034;75;50193;-77
2023/09/20 04:37:17;;;;;;;4.55;2.35;;;;;;;23.28;49.06;100405.99;2323136;76;52371;-76
2023/09/20 04:40:19;;;;;;;7.80;2.90;;;;;;;23.28;48.99;100393.84;2322121;76;50169;-75
2023/09/20 04:43:21;;;;;;;7.50;2.85;;;;;;;23.28;49.03;100397.89;2321945;76;50192;-75
2023/09/20 04:46:25;;;;;;;5.53;2.90;;;;;;;23.28;48.96;100400.59;2321994;76;49985;-75
2023/09/20 04:49:27;;;;;;;4.97;2.52;;;;;;;23.27;48.98;100409.19;2302115;76;51482;-75
2023/09/20 04:52:30;;;;;;;5.40;2.52;;;;;;;23.26;49.05;100412.42;2310161;77;50611;-76
2023/09/20 04:55:34;;;;;;;5.20;2.12;;;;;;;23.25;49.05;100417.53;2284592;77;50564;-76
2023/09/20 04:58:36;;;;;;;3.52;2.08;;;;;;;23.25;49.04;100420.23;2284816;77;51485;-76
2023/09/20 05:01:38;;;;;;;3.70;2.05;;;;;;;23.25;49.02;100420.23;2303817;77;51367;-76
2023/09/20 05:04:41;;;;;;;4.92;2.05;;;;;;;23.25;49.04;100422.11;2258925;77;52364;-76
2023/09/20 05:07:44;;;;;;;5.28;2.33;;;;;;;23.25;49.08;100426.16;2284489;77;50584;-76
2023/09/20 05:10:46;;;;;;;6.12;2.30;;;;;;;23.25;49.14;100424.80;2284538;77;50464;-76
2023/09/20 05:13:48;;;;;;;5.67;2.12;;;;;;;23.24;49.17;100428.00;2284335;76;50670;-77
2023/09/20 05:16:51;;;;;;;5.55;2.50;;;;;;;23.24;49.44;100432.05;2339175;75;50621;-76
2023/09/20 05:19:53;;;;;;;6.65;2.40;;;;;;;23.22;49.44;100431.47;2284724;76;52423;-76
2023/09/20 05:22:55;;;;;;;4.58;2.12;;;;;;;23.25;49.37;100434.25;2279796;77;51491;-77
2023/09/20 05:25:57;;;;;;;13.35;2.65;;;;;;;23.23;49.42;100437.16;2270763;77;50095;-77
2023/09/20 05:29:00;;;;;;;8.08;2.52;;;;;;;23.24;49.46;100428.53;2270829;77;51594;-76
2023/09/20 05:32:02;;;;;;;12.20;2.85;;;;;;;23.23;49.75;100426.36;2292241;77;50543;-77
2023/09/20 05:35:08;;;;;;;16.95;2.67;;;;;;;23.24;50.04;100440.15;2270869;77;51597;-77
2023/09/20 05:38:15;;;;;;;7.53;2.25;;;;;;;23.23;49.97;100438.51;2272030;77;22189;-76
2023/09/20 05:41:15;;;;;;;7.62;2.42;;;;;;;23.26;49.71;100436.71;2295373;76;21683;-76
2023/09/20 05:44:19;;;;;;;12.20;2.67;;;;;;;23.26;49.68;100443.99;2246256;77;50980;-77
2023/09/20 05:47:21;;;;;;;10.30;2.60;;;;;;;23.25;49.71;100446.40;2271208;77;50640;-77
2023/09/20 05:50:23;;;;;;;9.90;2.50;;;;;;;23.23;49.70;100449.31;2278331;76;51385;-77
2023/09/20 05:53:25;;;;;;;10.43;2.70;;;;;;;23.22;49.55;100450.36;2278490;76;52610;-76
2023/09/20 05:56:27;;;;;;;9.25;2.37;;;;;;;23.23;49.51;100451.19;2332911;76;51469;-77
2023/09/20 05:59:31;;;;;;;12.40;3.00;;;;;;;23.22;49.20;100447.66;2336112;75;50310;-76
2023/09/20 06:02:33;;;;;;;14.63;2.75;;;;;;;23.22;49.19;100444.97;2308308;76;51443;-76
2023/09/20 06:05:37;;;;;;;12.25;2.77;;;;;;;23.29;48.92;100449.48;2308276;76;50647;-76
2023/09/20 06:08:39;;;;;;;7.08;2.72;;;;;;;23.29;48.89;100454.88;2262371;76;52448;-76
2023/09/20 06:11:41;;;;;;;7.03;2.58;;;;;;;23.32;48.63;100459.83;2282708;75;51432;-76
2023/09/20 06:14:43;;;;;;;11.48;2.52;;;;;;;23.31;48.58;100456.84;2316813;75;51348;-77
2023/09/20 06:17:49;;;;;;;10.15;2.83;;;;;;;23.31;48.48;100457.66;2274350;76;51603;-76
2023/09/20 06:20:51;;;;;;;17.42;2.92;;;;;;;23.32;48.28;100451.73;2315495;76;50341;-77
2023/09/20 06:23:54;;;;;;;13.48;3.05;;;;;;;23.36;48.06;100454.31;2299598;76;51553;-77
2023/09/20 06:26:58;;;;;;;7.75;2.47;;;;;;;23.37;47.96;100458.66;2263797;77;50237;-77
2023/09/20 06:30:12;;;;;;;13.93;2.40;;;;;;;23.37;48.08;100460.00;2276415;76;22278;-77
2023/09/20 06:33:10;;;;;;;9.13;2.72;;;;;;;23.38;47.93;100458.97;2316856;76;21812;-76
2023/09/20 06:36:22;;;;;;;8.38;2.30;;;;;;;23.41;47.67;100453.13;2320906;76;50692;-77
2023/09/20 06:39:25;;;;;;;13.48;2.20;;;;;;;23.44;47.54;100454.03;2276489;75;50740;-76
2023/09/20 06:42:31;;;;;;;11.65;2.60;;;;;;;23.44;47.40;100458.08;2251951;76;51226;-76
2023/09/20 06:45:33;;;;;;;7.35;2.85;;;;;;;23.45;47.26;100454.32;2278354;76;50722;-76
2023/09/20 06:48:43;;;;;;;10.38;2.52;;;;;;;23.48;47.20;100462.02;2258513;77;51294;-76
2023/09/20 06:51:45;;;;;;;4.62;1.98;;;;;;;23.51;47.05;100460.21;2291797;76;50835;-76
2023/09/20 06:54:48;;;;;;;6.35;2.15;;;;;;;23.52;46.94;100464.55;2271814;76;50036;-78
2023/09/20 06:57:51;;;;;;;8.13;2.50;;;;;;;23.52;46.93;100467.25;2224493;77;51124;-77
2023/09/20 07:00:55;;;;;;;4.08;2.08;;;;;;;23.51;47.00;100468.84;2249667;78;50553;-77
2023/09/20 07:03:58;;;;;;;7.25;2.40;;;;;;;23.52;46.76;100474.01;2271845;77;50679;-77
2023/09/20 07:07:00;;;;;;;4.12;1.85;;;;;;;23.53;46.82;100481.58;2225208;78;51517;-77
2023/09/20 07:10:05;;;;;;;7.35;2.20;;;;;;;23.55;46.68;100478.14;2272790;77;50686;-78
2023/09/20 07:13:09;;;;;;;3.45;1.80;;;;;;;23.54;46.53;100481.37;2250986;78;21726;-77
2023/09/20 07:16:10;;;;;;;4.67;2.05;;;;;;;23.56;46.46;100473.06;2251429;78;21619;-77
2023/09/20 07:19:16;;;;;;;5.25;2.00;;;;;;;23.53;46.36;100475.68;2274386;77;50668;-77
2023/09/20 07:22:16;;;;;;;5.35;2.35;;;;;;;23.52;46.54;100482.11;2314787;75;21962;-76
2023/09/20 07:25:27;;;;;;;3.55;1.98;;;;;;;23.50;46.42;100480.14;2301603;76;50579;-77
2023/09/20 07:28:24;;;;;;;4.42;2.22;;;;;;;23.50;46.47;100479.33;2299646;76;21636;-77
2023/09/20 07:31:26;;;;;;;5.33;1.82;;;;;;;23.51;46.42;100487.22;2256387;76;51605;-78
2023/09/20 07:34:33;;;;;;;4.00;1.82;;;;;;;23.52;46.23;100485.34;2280216;77;50560;-77
2023/09/20 07:37:32;;;;;;;7.22;2.22;;;;;;;23.52;46.25;100485.34;2304268;76;22324;-77
2023/09/20 07:40:35;;;;;;;3.83;2.08;;;;;;;23.52;46.11;100481.29;2301457;76;49898;-78
2023/09/20 07:43:43;;;;;;;5.45;1.90;;;;;;;23.55;46.20;100479.49;2305302;76;51562;-77
2023/09/20 07:46:44;;;;;;;4.25;1.95;;;;;;;23.58;46.24;100479.05;2305564;76;22276;-77
2023/09/20 07:49:46;;;;;;;4.85;1.85;;;;;;;23.57;46.25;100478.23;2305978;76;50777;-77
2023/09/20 07:52:50;;;;;;;4.20;2.02;;;;;;;23.55;46.08;100478.96;2313909;76;50579;-78
2023/09/20 07:56:03;;;;;;;6.55;2.25;;;;;;;23.54;46.13;100485.42;2253501;77;51853;-78
2023/09/20 07:59:06;;;;;;;5.65;1.67;;;;;;;23.53;46.05;100482.43;2299606;76;50391;-78
2023/09/20 08:02:09;;;;;;;5.37;1.67;;;;;;;23.53;46.13;100478.38;2299342;76;50308;-79
2023/09/20 08:05:12;;;;;;;3.27;2.12;;;;;;;23.55;46.17;100485.71;2303752;76;51529;-77
2023/09/20 08:08:14;;;;;;;5.67;2.02;;;;;;;23.55;46.18;100492.47;2303856;76;50640;-77
2023/09/20 08:11:16;;;;;;;3.58;1.80;;;;;;;23.56;46.17;100500.07;2277450;77;52496;-77
2023/09/20 08:14:18;;;;;;;3.83;1.98;;;;;;;23.55;46.07;100497.87;2299596;76;51845;-77
2023/09/20 08:20:42;;;;;;;2.92;1.87;;;;;;;23.53;46.07;100508.09;2305364;76;22433;-77
2023/09/20 09:00:34;;;;;;;3.42;1.60;;;;;;;23.39;46.39;100495.72;2318598;76;22500;-77
2023/09/20 09:03:36;;;;;;;5.87;2.00;;;;;;;23.40;46.43;100489.26;2293971;76;50077;-78
2023/09/20 09:06:38;;;;;;;3.22;1.70;;;;;;;23.39;46.45;100484.91;2318299;76;50661;-78
2023/09/20 09:09:41;;;;;;;2.62;1.90;;;;;;;23.40;46.49;100487.41;2318456;76;51384;-78
2023/09/20 09:12:43;;;;;;;4.60;2.05;;;;;;;23.40;46.50;100482.51;2292411;76;50325;-77
2023/09/20 09:15:48;;;;;;;3.05;1.67;;;;;;;23.41;46.49;100483.66;2318077;76;50640;-78
2023/09/20 09:18:49;;;;;;;4.25;1.95;;;;;;;23.41;46.53;100476.08;2318612;76;21706;-77
2023/09/20 09:21:52;;;;;;;5.20;2.05;;;;;;;23.40;46.54;100478.45;2304225;76;51453;-79
2023/09/20 09:24:54;;;;;;;6.03;1.70;;;;;;;23.40;46.60;100478.45;2311727;76;50353;-77
2023/09/20 09:27:56;;;;;;;3.52;2.02;;;;;;;23.39;46.65;100476.81;2313570;76;51633;-77
2023/09/20 09:31:00;;;;;;;2.55;1.60;;;;;;;23.39;46.65;100475.47;2340492;75;50440;-78
2023/09/20 09:34:04;;;;;;;3.60;2.20;;;;;;;23.37;46.72;100477.55;2335644;75;51351;-77
2023/09/20 09:37:06;;;;;;;3.75;1.70;;;;;;;23.38;46.73;100482.75;2313936;76;51205;-77
2023/09/20 09:40:09;;;;;;;4.47;2.05;;;;;;;23.38;46.78;100481.39;2312215;76;51495;-78
2023/09/20 09:43:15;;;;;;;2.25;1.55;;;;;;;23.37;46.78;100478.38;2329342;75;51368;-78
2023/09/20 09:46:17;;;;;;;4.70;1.92;;;;;;;23.36;46.83;100482.66;2313640;76;51521;-79
2023/09/20 09:49:20;;;;;;;6.80;2.25;;;;;;;23.35;46.84;100480.48;2335610;75;50396;-76
2023/09/20 09:52:26;;;;;;;2.87;1.60;;;;;;;23.36;46.79;100471.86;2263659;75;50588;-78
2023/09/20 09:55:28;;;;;;;4.03;1.70;;;;;;;23.35;46.86;100472.89;2329358;75;52800;-77
2023/09/20 09:58:30;;;;;;;5.33;2.08;;;;;;;23.34;46.87;100472.06;2326461;75;51516;-77
2023/09/20 10:01:37;;;;;;;4.10;2.05;;;;;;;23.35;46.88;100474.23;2312482;76;51660;-77
2023/09/20 10:04:42;;;;;;;5.83;2.08;;;;;;;23.35;46.92;100471.53;2333061;75;51564;-77
2023/09/20 10:07:45;;;;;;;3.58;1.90;;;;;;;23.34;46.91;100469.89;2325667;75;50390;-75
2023/09/20 10:10:48;;;;;;;4.97;1.82;;;;;;;23.36;46.89;100469.16;2316393;76;50423;-77
2023/09/20 10:13:53;;;;;;;7.85;2.12;;;;;;;23.35;46.96;100474.23;2299623;76;50206;-77
2023/09/20 10:16:55;;;;;;;8.73;2.72;;;;;;;23.35;47.16;100467.48;2303332;76;51084;-78
2023/09/20 10:19:57;;;;;;;4.97;2.10;;;;;;;23.35;47.52;100470.19;2284405;76;50648;-77
2023/09/20 10:23:04;;;;;;;4.60;2.02;;;;;;;23.35;47.49;100468.84;2300822;76;50715;-78
2023/09/20 10:26:11;;;;;;;4.90;2.52;;;;;;;23.36;47.56;100466.46;2326882;75;23300;-76
2023/09/20 10:29:28;;;;;;;6.72;2.33;;;;;;;23.35;47.58;100466.98;2309999;76;51587;-76
2023/09/20 10:32:56;;;;;;;3.25;2.08;;;;;;;23.35;47.73;100466.14;2304186;76;51733;-78
2023/09/20 10:35:58;;;;;;;7.33;2.20;;;;;;;23.34;47.67;100463.14;2302073;76;21808;-77
2023/09/20 10:39:16;;;;;;;7.90;2.42;;;;;;;23.33;47.83;100452.88;2307240;75;50048;-77
2023/09/20 10:42:24;;;;;;;5.28;2.30;;;;;;;23.33;47.64;100450.70;2325665;76;51850;-78
2023/09/20 10:45:26;;;;;;;6.42;2.50;;;;;;;23.33;47.52;100456.92;2297292;76;21766;-77
2023/09/20 10:48:29;;;;;;;7.55;2.17;;;;;;;23.33;47.50;100442.61;2295377;76;50658;-77
2023/09/20 10:51:48;;;;;;;8.20;2.02;;;;;;;23.34;47.50;100446.95;2308947;76;51529;-77
2023/09/20 10:54:57;;;;;;;9.38;2.37;;;;;;;23.32;47.51;100440.41;2293410;76;21692;-77
2023/09/20 10:58:03;;;;;;;4.60;2.00;;;;;;;23.34;47.53;100442.37;2322060;76;51481;-77
2023/09/20 11:01:04;;;;;;;;;;;;;;;23.35;47.47;100433.23;2319399;75;51605;-77
2023/09/20 11:04:07;;;;;;;5.35;2.20;;;;;;;23.38;47.43;100426.58;2308572;75;51353;-77
2023/09/20 11:07:09;;;;;;;5.20;1.92;;;;;;;23.37;47.40;100421.67;2314290;76;50583;-78
2023/09/20 11:10:13;;;;;;;3.45;1.90;;;;;;;23.38;47.44;100429.27;2318065;76;51477;-78
2023/09/20 11:13:19;;;;;;;4.03;1.95;;;;;;;23.37;47.45;100428.95;2299470;76;50453;-77
2023/09/20 11:16:21;;;;;;;7.95;2.17;;;;;;;23.37;47.41;100420.32;2294589;76;22369;-77
2023/09/20 11:19:25;;;;;;;11.43;2.17;;;;;;;23.36;47.46;100412.45;2315051;76;51503;-78
2023/09/20 11:22:27;;;;;;;24.90;3.35;;;;;;;23.38;47.47;100417.13;2338416;76;50746;-76
2023/09/20 11:25:29;;;;;;;19.92;2.58;;;;;;;23.42;47.49;100411.56;2304571;76;52454;-77
2023/09/20 11:28:34;;;;;;;25.37;3.12;;;;;;;23.43;47.63;100405.95;2330986;76;50609;-77
2023/09/20 11:31:37;;;;;;;17.27;3.10;;;;;;;23.44;47.66;100405.42;2336665;76;22189;-78
2023/09/20 11:34:52;;;;;;;13.78;2.77;;;;;;;23.44;47.68;100415.70;2325653;76;50419;-78
2023/09/20 11:37:51;;;;;;;17.00;3.15;;;;;;;23.44;47.87;100406.25;2338021;74;22351;-78
2023/09/20 11:40:53;;;;;;;13.13;2.12;;;;;;;23.44;47.95;100413.00;2306786;76;50790;-77
2023/09/20 11:43:57;;;;;;;13.90;2.70;;;;;;;23.42;48.14;100414.27;2338502;76;50520;-76
2023/09/20 11:47:00;;;;;;;15.55;2.55;;;;;;;23.42;48.11;100411.56;2285035;76;51484;-77
2023/09/20 11:50:04;;;;;;;20.52;3.05;;;;;;;23.42;48.15;100405.63;2271827;77;52557;-76
2023/09/20 11:53:06;;;;;;;14.55;2.30;;;;;;;23.44;48.15;100400.02;2272260;77;50205;-77
2023/09/20 11:56:09;;;;;;;14.53;2.58;;;;;;;23.47;48.15;100407.67;2297288;76;50178;-76
2023/09/20 11:59:11;;;;;;;20.60;2.92;;;;;;;23.50;48.14;100405.88;2297259;77;50209;-77
2023/09/20 12:02:13;;;;;;;19.85;2.75;;;;;;;23.51;48.06;100404.85;2302907;76;50212;-77
2023/09/20 12:05:18;;;;;;;23.02;3.22;;;;;;;23.54;48.18;100401.70;2246897;77;52329;-76
2023/09/20 12:08:20;;;;;;;12.13;2.40;;;;;;;23.54;48.20;100403.05;2297900;76;22231;-77
2023/09/20 12:11:25;;;;;;;15.78;2.50;;;;;;;23.54;48.15;100399.00;2305227;76;50742;-78
2023/09/20 12:14:28;;;;;;;13.28;2.60;;;;;;;23.57;48.28;100389.09;2267129;76;51171;-78
2023/09/20 12:17:30;;;;;;;11.83;2.40;;;;;;;23.57;48.26;100386.39;2328348;76;51468;-78
2023/09/20 12:20:35;;;;;;;13.88;2.40;;;;;;;23.57;48.27;100391.80;2336357;74;50126;-81
2023/09/20 12:23:38;;;;;;;17.20;2.80;;;;;;;23.57;48.39;100398.55;2314997;75;22445;-78
2023/09/20 12:26:41;;;;;;;30.27;3.60;;;;;;;23.57;48.45;100396.37;2300868;76;50210;-77
2023/09/20 12:29:44;;;;;;;26.40;2.92;;;;;;;23.59;48.46;100395.64;2289322;76;50687;-78
2023/09/20 12:32:46;;;;;;;20.92;2.85;;;;;;;23.57;48.47;100385.05;2320652;76;51466;-78
2023/09/20 12:35:48;;;;;;;28.35;3.30;;;;;;;23.54;48.49;100389.55;2328499;75;51087;-78
2023/09/20 12:38:51;;;;;;;25.20;2.75;;;;;;;23.50;48.55;100381.58;2300056;76;52686;-78
2023/09/20 12:41:53;;;;;;;20.27;2.65;;;;;;;23.51;48.43;100382.42;2319213;75;50888;-77
2023/09/20 12:44:57;;;;;;;17.25;2.90;;;;;;;23.55;48.30;100370.11;2296635;75;51316;-76
2023/09/20 12:47:59;;;;;;;12.33;2.72;;;;;;;23.55;48.49;100366.88;2281973;76;50707;-79
2023/09/20 12:51:02;;;;;;;23.22;2.37;;;;;;;23.55;48.66;100366.88;2301513;76;51430;-80
2023/09/20 12:54:06;;;;;;;27.15;3.35;;;;;;;23.56;48.73;100356.93;2289088;76;50990;-78
2023/09/20 12:57:08;;;;;;;19.57;3.65;;;;;;;23.55;48.81;100351.20;2307277;76;51371;-76
2023/09/20 13:00:16;;;;;;;17.05;2.62;;;;;;;23.56;48.89;100341.55;2319084;75;50668;-77
2023/09/20 13:03:15;;;;;;;18.75;2.55;;;;;;;23.56;48.89;100342.89;2330711;76;22248;-77
2023/09/20 13:06:17;;;;;;;10.53;2.22;;;;;;;23.57;48.80;100340.48;2319069;76;50263;-77
2023/09/20 13:09:21;;;;;;;13.00;2.30;;;;;;;23.54;48.72;100340.11;2319185;75;50353;-76
2023/09/20 13:12:24;;;;;;;10.08;2.42;;;;;;;23.53;48.55;100351.45;2313488;76;50260;-76
2023/09/20 13:15:26;;;;;;;5.83;1.90;;;;;;;23.52;48.32;100344.38;2307750;75;51550;-78
2023/09/20 13:18:29;;;;;;;12.20;2.77;;;;;;;23.52;48.33;100340.86;2325703;76;50633;-78
2023/09/20 13:21:31;;;;;;;13.55;2.00;;;;;;;23.52;48.27;100337.62;2305575;76;51520;-76
2023/09/20 13:24:34;;;;;;;9.03;2.12;;;;;;;23.51;48.19;100329.23;2307278;76;51461;-77
2023/09/20 13:27:37;;;;;;;10.28;2.22;;;;;;;23.54;48.15;100338.23;2308538;76;51516;-77
2023/09/20 13:30:40;;;;;;;8.23;2.00;;;;;;;23.55;48.14;100328.25;2330732;76;50229;-77
2023/09/20 13:33:42;;;;;;;8.03;2.40;;;;;;;23.54;48.04;100330.12;2307428;76;51575;-78
2023/09/20 13:36:44;;;;;;;10.65;2.47;;;;;;;23.53;47.89;100331.19;2307578;76;51450;-78
2023/09/20 13:39:47;;;;;;;10.78;2.30;;;;;;;23.54;47.96;100317.98;2307323;76;51402;-78
2023/09/20 13:42:49;;;;;;;5.70;2.10;;;;;;;23.54;47.87;100317.98;2308339;76;52365;-77
2023/09/20 13:45:52;;;;;;;5.65;2.10;;;;;;;23.54;47.80;100315.28;2264583;76;52187;-77
2023/09/20 13:48:55;;;;;;;3.67;1.85;;;;;;;23.53;47.86;100319.04;2297492;76;50623;-76
2023/09/20 13:51:57;;;;;;;4.25;1.70;;;;;;;23.51;47.85;100316.27;2330839;75;50144;-76
2023/09/20 13:55:01;;;;;;;6.42;2.27;;;;;;;23.51;47.79;100315.73;2307182;76;50328;-78
2023/09/20 13:58:03;;;;;;;5.75;1.80;;;;;;;23.53;47.69;100314.98;2330870;76;22390;-78
2023/09/20 14:01:06;;;;;;;4.20;1.92;;;;;;;23.53;47.61;100319.04;2308595;76;51118;-76
2023/09/20 14:04:09;;;;;;;4.05;1.92;;;;;;;23.52;47.54;100318.72;2335029;75;50318;-76
2023/09/20 14:07:17;;;;;;;4.20;2.00;;;;;;;23.52;47.50;100318.72;2335323;75;51497;-77
2023/09/20 14:10:17;;;;;;;4.72;1.77;;;;;;;23.51;47.47;100310.33;2305535;76;22343;-77
2023/09/20 14:13:19;;;;;;;7.22;2.30;;;;;;;23.50;47.40;100315.41;2330634;76;50355;-77
2023/09/20 14:16:21;;;;;;;5.60;2.00;;;;;;;23.48;47.42;100314.84;2323996;75;50607;-76
2023/09/20 14:19:23;;;;;;;5.12;2.05;;;;;;;23.48;47.37;100314.30;2335249;75;51422;-78
2023/09/20 14:22:26;;;;;;;3.52;2.05;;;;;;;23.45;47.44;100305.80;2335215;75;50259;-77
2023/09/20 14:25:28;;;;;;;4.78;1.57;;;;;;;23.45;47.45;100307.16;2322199;76;50064;-77
2023/09/20 14:28:30;;;;;;;3.20;1.90;;;;;;;23.47;47.54;100307.77;2321196;76;50200;-77
2023/09/20 14:31:32;;;;;;;3.80;1.90;;;;;;;23.50;47.34;100299.74;2349172;75;50652;-77
2023/09/20 14:34:35;;;;;;;7.03;2.02;;;;;;;23.51;47.16;100301.41;2322014;76;52485;-77
2023/09/20 14:37:38;;;;;;;3.85;1.72;;;;;;;23.51;47.09;100300.88;2342367;76;51411;-78
2023/09/20 14:40:40;;;;;;;3.77;1.80;;;;;;;23.53;47.22;100300.14;2342253;76;50405;-77
2023/09/20 14:43:42;;;;;;;4.75;1.75;;;;;;;23.53;47.11;100293.38;2348911;75;50206;-78
2023/09/20 14:46:44;;;;;;;2.58;1.57;;;;;;;23.53;46.98;100285.28;2316957;76;50646;-78
2023/09/20 14:49:47;;;;;;;4.72;1.82;;;;;;;23.54;47.01;100285.57;2283686;77;51421;-77
2023/09/20 14:52:49;;;;;;;5.03;2.10;;;;;;;23.54;47.03;100281.52;2302645;77;50656;-77